sensor_id;sensor_type;location;lat;lon;timestamp;P1;durP1;ratioP1;P2;durP2;ratioP2
19780;SDS011;10050;55.492;13.506;2023-03-20T00:01:17;36.77;;;24.90;;
19780;SDS011;10050;55.492;13.506;2023-03-20T00:03:45;34.17;;;23.13;;
19780;SDS011;10050;55.492;13.506;2023-03-20T00:06:13;33.87;;;23.97;;
19780;SDS011;10050;55.492;13.506;2023-03-20T00:08:41;36.10;;;24.67;;
19780;SDS011;10050;55.492;13.506;2023-03-20T00:11:55;34.97;;;24.93;;
19780;SDS011;10050;55.492;13.506;2023-03-20T00:14:04;30.13;;;22.00;;
19780;SDS011;10050;55.492;13.506;2023-03-20T00:16:33;29.87;;;21.87;;
19780;SDS011;10050;55.492;13.506;2023-03-20T00:19:04;30.57;;;22.07;;
19780;SDS011;10050;55.492;13.506;2023-03-20T00:21:30;30.27;;;21.53;;
19780;SDS011;10050;55.492;13.506;2023-03-20T00:23:59;36.50;;;25.20;;
19780;SDS011;10050;55.492;13.506;2023-03-20T00:26:27;34.17;;;24.03;;
19780;SDS011;10050;55.492;13.506;2023-03-20T00:28:56;35.27;;;25.03;;
19780;SDS011;10050;55.492;13.506;2023-03-20T00:31:24;34.70;;;23.43;;
19780;SDS011;10050;55.492;13.506;2023-03-20T00:33:58;33.20;;;22.03;;
19780;SDS011;10050;55.492;13.506;2023-03-20T00:36:25;36.30;;;24.33;;
19780;SDS011;10050;55.492;13.506;2023-03-20T00:38:52;35.90;;;24.73;;
19780;SDS011;10050;55.492;13.506;2023-03-20T00:41:25;33.37;;;24.43;;
19780;SDS011;10050;55.492;13.506;2023-03-20T00:46:50;29.97;;;22.33;;
19780;SDS011;10050;55.492;13.506;2023-03-20T00:49:28;30.63;;;22.17;;
19780;SDS011;10050;55.492;13.506;2023-03-20T00:51:58;32.13;;;23.70;;
19780;SDS011;10050;55.492;13.506;2023-03-20T00:54:25;33.93;;;24.43;;
19780;SDS011;10050;55.492;13.506;2023-03-20T00:59:22;34.67;;;25.23;;
19780;SDS011;10050;55.492;13.506;2023-03-20T01:01:51;38.90;;;27.47;;
19780;SDS011;10050;55.492;13.506;2023-03-20T01:04:17;35.67;;;26.23;;
19780;SDS011;10050;55.492;13.506;2023-03-20T01:06:44;36.80;;;25.07;;
19780;SDS011;10050;55.492;13.506;2023-03-20T01:09:12;39.70;;;28.57;;
19780;SDS011;10050;55.492;13.506;2023-03-20T01:11:39;40.40;;;27.40;;
19780;SDS011;10050;55.492;13.506;2023-03-20T01:14:10;44.00;;;27.70;;
19780;SDS011;10050;55.492;13.506;2023-03-20T01:16:38;38.73;;;28.93;;
19780;SDS011;10050;55.492;13.506;2023-03-20T01:19:04;46.17;;;30.23;;
19780;SDS011;10050;55.492;13.506;2023-03-20T01:21:30;41.33;;;28.17;;
19780;SDS011;10050;55.492;13.506;2023-03-20T01:23:56;39.47;;;28.27;;
19780;SDS011;10050;55.492;13.506;2023-03-20T01:26:23;34.23;;;24.73;;
19780;SDS011;10050;55.492;13.506;2023-03-20T01:28:55;44.87;;;28.43;;
19780;SDS011;10050;55.492;13.506;2023-03-20T01:31:21;37.83;;;26.27;;
19780;SDS011;10050;55.492;13.506;2023-03-20T01:33:47;40.10;;;25.23;;
19780;SDS011;10050;55.492;13.506;2023-03-20T01:36:13;34.87;;;24.77;;
19780;SDS011;10050;55.492;13.506;2023-03-20T01:38:41;35.10;;;23.90;;
19780;SDS011;10050;55.492;13.506;2023-03-20T01:41:16;42.47;;;27.13;;
19780;SDS011;10050;55.492;13.506;2023-03-20T01:43:43;35.17;;;26.10;;
19780;SDS011;10050;55.492;13.506;2023-03-20T01:46:14;34.77;;;23.37;;
19780;SDS011;10050;55.492;13.506;2023-03-20T01:51:19;36.73;;;25.97;;
19780;SDS011;10050;55.492;13.506;2023-03-20T01:54:00;34.33;;;25.30;;
19780;SDS011;10050;55.492;13.506;2023-03-20T01:56:31;30.73;;;22.80;;
19780;SDS011;10050;55.492;13.506;2023-03-20T01:59:00;37.73;;;25.50;;
19780;SDS011;10050;55.492;13.506;2023-03-20T02:01:30;34.27;;;23.83;;
19780;SDS011;10050;55.492;13.506;2023-03-20T02:03:59;31.30;;;23.00;;
19780;SDS011;10050;55.492;13.506;2023-03-20T02:06:26;37.87;;;26.50;;
19780;SDS011;10050;55.492;13.506;2023-03-20T02:08:51;35.70;;;25.70;;
19780;SDS011;10050;55.492;13.506;2023-03-20T02:11:19;42.83;;;27.80;;
19780;SDS011;10050;55.492;13.506;2023-03-20T02:13:48;40.07;;;27.90;;
19780;SDS011;10050;55.492;13.506;2023-03-20T02:16:16;40.80;;;27.63;;
19780;SDS011;10050;55.492;13.506;2023-03-20T02:18:44;42.13;;;27.80;;
19780;SDS011;10050;55.492;13.506;2023-03-20T02:26:45;47.87;;;31.00;;
19780;SDS011;10050;55.492;13.506;2023-03-20T02:29:47;53.47;;;31.87;;
19780;SDS011;10050;55.492;13.506;2023-03-20T02:38:48;61.97;;;33.47;;
19780;SDS011;10050;55.492;13.506;2023-03-20T02:41:35;55.63;;;31.23;;
19780;SDS011;10050;55.492;13.506;2023-03-20T02:58:18;54.97;;;30.63;;
19780;SDS011;10050;55.492;13.506;2023-03-20T03:01:01;57.53;;;28.77;;
19780;SDS011;10050;55.492;13.506;2023-03-20T03:03:36;44.50;;;29.00;;
19780;SDS011;10050;55.492;13.506;2023-03-20T03:06:09;41.57;;;28.27;;
19780;SDS011;10050;55.492;13.506;2023-03-20T03:08:43;51.00;;;29.40;;
19780;SDS011;10050;55.492;13.506;2023-03-20T03:11:13;57.33;;;26.93;;
19780;SDS011;10050;55.492;13.506;2023-03-20T03:13:44;42.03;;;24.03;;
19780;SDS011;10050;55.492;13.506;2023-03-20T03:16:23;32.00;;;21.97;;
19780;SDS011;10050;55.492;13.506;2023-03-20T03:19:02;30.87;;;19.57;;
19780;SDS011;10050;55.492;13.506;2023-03-20T03:21:38;28.43;;;17.17;;
19780;SDS011;10050;55.492;13.506;2023-03-20T03:24:04;22.53;;;16.17;;
19780;SDS011;10050;55.492;13.506;2023-03-20T03:26:35;22.80;;;14.47;;
19780;SDS011;10050;55.492;13.506;2023-03-20T03:29:10;20.73;;;13.73;;
19780;SDS011;10050;55.492;13.506;2023-03-20T03:31:39;21.60;;;12.97;;
19780;SDS011;10050;55.492;13.506;2023-03-20T03:34:07;17.30;;;11.27;;
19780;SDS011;10050;55.492;13.506;2023-03-20T03:42:13;15.90;;;9.93;;
19780;SDS011;10050;55.492;13.506;2023-03-20T03:47:35;14.20;;;10.07;;
19780;SDS011;10050;55.492;13.506;2023-03-20T03:50:16;15.63;;;9.57;;
19780;SDS011;10050;55.492;13.506;2023-03-20T03:52:50;16.03;;;9.73;;
19780;SDS011;10050;55.492;13.506;2023-03-20T03:55:23;15.70;;;9.47;;
19780;SDS011;10050;55.492;13.506;2023-03-20T03:57:53;16.03;;;9.43;;
19780;SDS011;10050;55.492;13.506;2023-03-20T04:00:23;15.43;;;9.03;;
19780;SDS011;10050;55.492;13.506;2023-03-20T04:02:52;15.10;;;8.97;;
19780;SDS011;10050;55.492;13.506;2023-03-20T04:05:20;16.33;;;9.17;;
19780;SDS011;10050;55.492;13.506;2023-03-20T04:07:47;13.80;;;8.73;;
19780;SDS011;10050;55.492;13.506;2023-03-20T04:10:18;14.07;;;8.33;;
19780;SDS011;10050;55.492;13.506;2023-03-20T04:12:44;14.67;;;8.60;;
19780;SDS011;10050;55.492;13.506;2023-03-20T04:15:11;15.03;;;8.43;;
19780;SDS011;10050;55.492;13.506;2023-03-20T04:17:38;13.43;;;7.77;;
19780;SDS011;10050;55.492;13.506;2023-03-20T04:20:04;16.00;;;8.43;;
19780;SDS011;10050;55.492;13.506;2023-03-20T04:22:31;12.13;;;7.83;;
19780;SDS011;10050;55.492;13.506;2023-03-20T04:24:59;13.13;;;7.43;;
19780;SDS011;10050;55.492;13.506;2023-03-20T04:27:26;14.40;;;8.83;;
19780;SDS011;10050;55.492;13.506;2023-03-20T04:29:53;12.87;;;8.07;;
19780;SDS011;10050;55.492;13.506;2023-03-20T04:32:21;14.60;;;8.33;;
19780;SDS011;10050;55.492;13.506;2023-03-20T04:34:47;13.43;;;8.33;;
19780;SDS011;10050;55.492;13.506;2023-03-20T04:37:13;13.50;;;8.10;;
19780;SDS011;10050;55.492;13.506;2023-03-20T04:39:38;14.47;;;8.70;;
19780;SDS011;10050;55.492;13.506;2023-03-20T04:42:08;17.90;;;9.17;;
19780;SDS011;10050;55.492;13.506;2023-03-20T04:44:34;13.20;;;9.00;;
19780;SDS011;10050;55.492;13.506;2023-03-20T04:47:00;15.50;;;8.80;;
19780;SDS011;10050;55.492;13.506;2023-03-20T04:49:26;16.03;;;8.60;;
19780;SDS011;10050;55.492;13.506;2023-03-20T04:51:52;15.43;;;8.70;;
19780;SDS011;10050;55.492;13.506;2023-03-20T04:54:19;14.33;;;8.03;;
19780;SDS011;10050;55.492;13.506;2023-03-20T04:56:45;15.57;;;9.27;;
19780;SDS011;10050;55.492;13.506;2023-03-20T04:59:11;14.33;;;7.77;;
19780;SDS011;10050;55.492;13.506;2023-03-20T05:01:37;13.57;;;8.07;;
19780;SDS011;10050;55.492;13.506;2023-03-20T05:04:03;13.87;;;8.00;;
19780;SDS011;10050;55.492;13.506;2023-03-20T05:06:29;12.77;;;7.67;;
19780;SDS011;10050;55.492;13.506;2023-03-20T05:08:56;13.13;;;8.20;;
19780;SDS011;10050;55.492;13.506;2023-03-20T05:11:23;14.43;;;8.20;;
19780;SDS011;10050;55.492;13.506;2023-03-20T05:13:50;13.37;;;9.03;;
19780;SDS011;10050;55.492;13.506;2023-03-20T05:16:19;17.23;;;11.47;;
19780;SDS011;10050;55.492;13.506;2023-03-20T05:18:45;15.30;;;9.17;;
19780;SDS011;10050;55.492;13.506;2023-03-20T05:21:10;19.47;;;11.57;;
19780;SDS011;10050;55.492;13.506;2023-03-20T05:23:36;14.03;;;8.67;;
19780;SDS011;10050;55.492;13.506;2023-03-20T05:26:02;11.63;;;8.73;;
19780;SDS011;10050;55.492;13.506;2023-03-20T05:28:28;13.73;;;9.00;;
19780;SDS011;10050;55.492;13.506;2023-03-20T05:30:54;11.53;;;8.47;;
19780;SDS011;10050;55.492;13.506;2023-03-20T05:33:21;11.97;;;8.03;;
19780;SDS011;10050;55.492;13.506;2023-03-20T05:35:47;11.33;;;8.33;;
19780;SDS011;10050;55.492;13.506;2023-03-20T05:38:13;9.80;;;7.00;;
19780;SDS011;10050;55.492;13.506;2023-03-20T05:40:38;10.10;;;7.70;;
19780;SDS011;10050;55.492;13.506;2023-03-20T05:43:05;8.87;;;6.70;;
19780;SDS011;10050;55.492;13.506;2023-03-20T05:45:32;10.60;;;6.33;;
19780;SDS011;10050;55.492;13.506;2023-03-20T05:47:57;8.37;;;6.27;;
19780;SDS011;10050;55.492;13.506;2023-03-20T05:50:23;8.90;;;5.93;;
19780;SDS011;10050;55.492;13.506;2023-03-20T05:52:51;8.40;;;5.00;;
19780;SDS011;10050;55.492;13.506;2023-03-20T05:55:17;8.30;;;5.60;;
19780;SDS011;10050;55.492;13.506;2023-03-20T05:57:42;8.80;;;5.70;;
19780;SDS011;10050;55.492;13.506;2023-03-20T06:00:08;7.47;;;5.60;;
19780;SDS011;10050;55.492;13.506;2023-03-20T06:02:35;6.37;;;5.17;;
19780;SDS011;10050;55.492;13.506;2023-03-20T06:05:01;9.47;;;6.27;;
19780;SDS011;10050;55.492;13.506;2023-03-20T06:07:27;9.23;;;6.43;;
19780;SDS011;10050;55.492;13.506;2023-03-20T06:09:53;9.17;;;6.23;;
19780;SDS011;10050;55.492;13.506;2023-03-20T06:12:19;11.30;;;6.17;;
19780;SDS011;10050;55.492;13.506;2023-03-20T06:14:45;7.77;;;5.93;;
19780;SDS011;10050;55.492;13.506;2023-03-20T06:17:11;10.27;;;6.80;;
19780;SDS011;10050;55.492;13.506;2023-03-20T06:19:36;11.30;;;6.53;;
19780;SDS011;10050;55.492;13.506;2023-03-20T06:22:02;11.57;;;6.90;;
19780;SDS011;10050;55.492;13.506;2023-03-20T06:24:28;9.83;;;7.13;;
19780;SDS011;10050;55.492;13.506;2023-03-20T06:26:54;11.70;;;8.17;;
19780;SDS011;10050;55.492;13.506;2023-03-20T06:29:20;12.23;;;8.03;;
19780;SDS011;10050;55.492;13.506;2023-03-20T06:31:46;14.77;;;8.13;;
19780;SDS011;10050;55.492;13.506;2023-03-20T06:34:12;17.63;;;9.30;;
19780;SDS011;10050;55.492;13.506;2023-03-20T06:36:38;19.27;;;11.93;;
19780;SDS011;10050;55.492;13.506;2023-03-20T06:39:04;16.23;;;9.00;;
19780;SDS011;10050;55.492;13.506;2023-03-20T06:41:30;15.80;;;9.00;;
19780;SDS011;10050;55.492;13.506;2023-03-20T06:43:56;21.10;;;9.90;;
19780;SDS011;10050;55.492;13.506;2023-03-20T06:46:21;19.10;;;9.10;;
19780;SDS011;10050;55.492;13.506;2023-03-20T06:48:47;17.23;;;9.67;;
19780;SDS011;10050;55.492;13.506;2023-03-20T06:51:13;23.37;;;9.83;;
19780;SDS011;10050;55.492;13.506;2023-03-20T06:53:39;15.37;;;9.07;;
19780;SDS011;10050;55.492;13.506;2023-03-20T06:56:08;17.33;;;10.07;;
19780;SDS011;10050;55.492;13.506;2023-03-20T06:58:35;20.37;;;10.17;;
19780;SDS011;10050;55.492;13.506;2023-03-20T07:01:01;15.07;;;9.17;;
19780;SDS011;10050;55.492;13.506;2023-03-20T07:03:27;22.73;;;9.03;;
19780;SDS011;10050;55.492;13.506;2023-03-20T07:05:53;15.60;;;8.57;;
19780;SDS011;10050;55.492;13.506;2023-03-20T07:08:18;14.07;;;8.70;;
19780;SDS011;10050;55.492;13.506;2023-03-20T07:10:44;15.57;;;9.63;;
19780;SDS011;10050;55.492;13.506;2023-03-20T07:13:10;11.83;;;8.47;;
19780;SDS011;10050;55.492;13.506;2023-03-20T07:15:36;14.90;;;9.48;;
19780;SDS011;10050;55.492;13.506;2023-03-20T07:18:02;16.90;;;7.80;;
19780;SDS011;10050;55.492;13.506;2023-03-20T07:20:28;26.77;;;7.47;;
19780;SDS011;10050;55.492;13.506;2023-03-20T07:22:53;11.90;;;7.13;;
19780;SDS011;10050;55.492;13.506;2023-03-20T07:25:19;15.47;;;7.00;;
19780;SDS011;10050;55.492;13.506;2023-03-20T07:27:45;20.13;;;7.27;;
19780;SDS011;10050;55.492;13.506;2023-03-20T07:30:14;12.53;;;6.67;;
19780;SDS011;10050;55.492;13.506;2023-03-20T07:32:41;12.67;;;6.97;;
19780;SDS011;10050;55.492;13.506;2023-03-20T07:35:07;11.87;;;6.43;;
19780;SDS011;10050;55.492;13.506;2023-03-20T07:37:33;10.93;;;7.13;;
19780;SDS011;10050;55.492;13.506;2023-03-20T07:39:59;14.90;;;6.80;;
19780;SDS011;10050;55.492;13.506;2023-03-20T07:42:27;11.17;;;6.73;;
19780;SDS011;10050;55.492;13.506;2023-03-20T07:44:53;13.73;;;6.97;;
19780;SDS011;10050;55.492;13.506;2023-03-20T07:47:18;10.53;;;6.60;;
19780;SDS011;10050;55.492;13.506;2023-03-20T07:49:44;11.57;;;6.33;;
19780;SDS011;10050;55.492;13.506;2023-03-20T07:52:10;10.77;;;6.63;;
19780;SDS011;10050;55.492;13.506;2023-03-20T07:54:36;16.80;;;6.90;;
19780;SDS011;10050;55.492;13.506;2023-03-20T07:57:02;14.30;;;6.70;;
19780;SDS011;10050;55.492;13.506;2023-03-20T07:59:29;12.77;;;6.50;;
19780;SDS011;10050;55.492;13.506;2023-03-20T08:01:55;12.53;;;6.33;;
19780;SDS011;10050;55.492;13.506;2023-03-20T08:04:21;9.13;;;6.90;;
19780;SDS011;10050;55.492;13.506;2023-03-20T08:06:47;13.00;;;7.23;;
19780;SDS011;10050;55.492;13.506;2023-03-20T08:09:14;9.67;;;6.50;;
19780;SDS011;10050;55.492;13.506;2023-03-20T08:11:40;11.37;;;7.07;;
19780;SDS011;10050;55.492;13.506;2023-03-20T08:14:05;9.83;;;6.47;;
19780;SDS011;10050;55.492;13.506;2023-03-20T08:16:31;11.97;;;6.67;;
19780;SDS011;10050;55.492;13.506;2023-03-20T08:18:57;9.63;;;7.43;;
19780;SDS011;10050;55.492;13.506;2023-03-20T08:21:28;10.10;;;7.33;;
19780;SDS011;10050;55.492;13.506;2023-03-20T08:23:55;9.63;;;6.83;;
19780;SDS011;10050;55.492;13.506;2023-03-20T08:26:21;9.30;;;6.67;;
19780;SDS011;10050;55.492;13.506;2023-03-20T08:28:47;11.03;;;7.40;;
19780;SDS011;10050;55.492;13.506;2023-03-20T08:31:13;7.60;;;6.03;;
19780;SDS011;10050;55.492;13.506;2023-03-20T08:33:39;8.97;;;6.63;;
19780;SDS011;10050;55.492;13.506;2023-03-20T08:36:05;8.90;;;7.03;;
19780;SDS011;10050;55.492;13.506;2023-03-20T08:38:31;10.03;;;6.60;;
19780;SDS011;10050;55.492;13.506;2023-03-20T08:40:57;8.50;;;6.40;;
19780;SDS011;10050;55.492;13.506;2023-03-20T08:43:22;8.60;;;6.63;;
19780;SDS011;10050;55.492;13.506;2023-03-20T08:45:48;11.10;;;7.10;;
19780;SDS011;10050;55.492;13.506;2023-03-20T08:48:14;8.27;;;6.93;;
19780;SDS011;10050;55.492;13.506;2023-03-20T08:50:40;7.67;;;6.33;;
19780;SDS011;10050;55.492;13.506;2023-03-20T08:53:06;5.90;;;5.20;;
19780;SDS011;10050;55.492;13.506;2023-03-20T08:55:32;6.60;;;5.30;;
19780;SDS011;10050;55.492;13.506;2023-03-20T08:57:57;5.83;;;5.30;;
19780;SDS011;10050;55.492;13.506;2023-03-20T09:00:23;6.43;;;4.87;;
19780;SDS011;10050;55.492;13.506;2023-03-20T09:02:49;7.83;;;5.00;;
19780;SDS011;10050;55.492;13.506;2023-03-20T09:05:16;6.43;;;5.60;;
19780;SDS011;10050;55.492;13.506;2023-03-20T09:07:42;6.07;;;5.37;;
19780;SDS011;10050;55.492;13.506;2023-03-20T09:10:08;5.87;;;5.10;;
19780;SDS011;10050;55.492;13.506;2023-03-20T09:12:34;5.17;;;4.30;;
19780;SDS011;10050;55.492;13.506;2023-03-20T09:15:00;5.90;;;5.13;;
19780;SDS011;10050;55.492;13.506;2023-03-20T09:17:26;5.13;;;4.60;;
19780;SDS011;10050;55.492;13.506;2023-03-20T09:19:52;6.47;;;4.80;;
19780;SDS011;10050;55.492;13.506;2023-03-20T09:22:18;5.93;;;4.63;;
19780;SDS011;10050;55.492;13.506;2023-03-20T09:24:44;5.20;;;4.43;;
19780;SDS011;10050;55.492;13.506;2023-03-20T09:27:10;6.53;;;4.33;;
19780;SDS011;10050;55.492;13.506;2023-03-20T09:29:39;5.53;;;5.03;;
19780;SDS011;10050;55.492;13.506;2023-03-20T09:32:06;4.80;;;4.10;;
19780;SDS011;10050;55.492;13.506;2023-03-20T09:34:33;5.13;;;4.63;;
19780;SDS011;10050;55.492;13.506;2023-03-20T09:36:59;5.10;;;4.60;;
19780;SDS011;10050;55.492;13.506;2023-03-20T09:39:27;4.97;;;4.47;;
19780;SDS011;10050;55.492;13.506;2023-03-20T09:41:52;5.47;;;4.37;;
19780;SDS011;10050;55.492;13.506;2023-03-20T09:44:54;6.47;;;3.63;;
19780;SDS011;10050;55.492;13.506;2023-03-20T09:47:34;4.30;;;3.90;;
19780;SDS011;10050;55.492;13.506;2023-03-20T09:53:02;4.10;;;3.70;;
19780;SDS011;10050;55.492;13.506;2023-03-20T09:55:34;3.83;;;3.43;;
19780;SDS011;10050;55.492;13.506;2023-03-20T09:58:05;4.63;;;4.00;;
19780;SDS011;10050;55.492;13.506;2023-03-20T10:01:02;4.00;;;3.60;;
19780;SDS011;10050;55.492;13.506;2023-03-20T10:03:52;4.07;;;3.57;;
19780;SDS011;10050;55.492;13.506;2023-03-20T10:06:25;3.03;;;2.73;;
19780;SDS011;10050;55.492;13.506;2023-03-20T10:08:51;4.00;;;3.17;;
19780;SDS011;10050;55.492;13.506;2023-03-20T10:11:46;3.33;;;3.03;;
19780;SDS011;10050;55.492;13.506;2023-03-20T10:14:21;3.73;;;2.90;;
19780;SDS011;10050;55.492;13.506;2023-03-20T10:20:53;2.70;;;2.50;;
19780;SDS011;10050;55.492;13.506;2023-03-20T10:23:34;2.57;;;2.37;;
19780;SDS011;10050;55.492;13.506;2023-03-20T10:25:48;2.80;;;2.60;;
19780;SDS011;10050;55.492;13.506;2023-03-20T10:33:42;3.87;;;2.70;;
19780;SDS011;10050;55.492;13.506;2023-03-20T10:42:16;3.40;;;3.10;;
19780;SDS011;10050;55.492;13.506;2023-03-20T10:44:55;3.17;;;2.83;;
19780;SDS011;10050;55.492;13.506;2023-03-20T10:47:38;3.73;;;3.20;;
19780;SDS011;10050;55.492;13.506;2023-03-20T10:50:14;4.77;;;3.87;;
19780;SDS011;10050;55.492;13.506;2023-03-20T10:52:42;3.80;;;3.10;;
19780;SDS011;10050;55.492;13.506;2023-03-20T10:55:21;3.20;;;2.90;;
19780;SDS011;10050;55.492;13.506;2023-03-20T10:58:06;3.90;;;2.50;;
19780;SDS011;10050;55.492;13.506;2023-03-20T11:00:43;3.13;;;2.73;;
19780;SDS011;10050;55.492;13.506;2023-03-20T11:03:15;3.27;;;2.83;;
19780;SDS011;10050;55.492;13.506;2023-03-20T11:05:50;2.77;;;2.57;;
19780;SDS011;10050;55.492;13.506;2023-03-20T11:08:41;2.70;;;2.50;;
19780;SDS011;10050;55.492;13.506;2023-03-20T11:11:10;2.37;;;2.17;;
19780;SDS011;10050;55.492;13.506;2023-03-20T11:13:40;2.53;;;2.30;;
19780;SDS011;10050;55.492;13.506;2023-03-20T11:16:15;2.93;;;2.60;;
19780;SDS011;10050;55.492;13.506;2023-03-20T11:18:49;2.73;;;2.43;;
19780;SDS011;10050;55.492;13.506;2023-03-20T11:21:23;2.67;;;2.40;;
19780;SDS011;10050;55.492;13.506;2023-03-20T11:23:51;2.40;;;2.20;;
19780;SDS011;10050;55.492;13.506;2023-03-20T11:26:19;3.33;;;2.53;;
19780;SDS011;10050;55.492;13.506;2023-03-20T11:28:54;3.27;;;2.67;;
19780;SDS011;10050;55.492;13.506;2023-03-20T11:31:27;2.90;;;2.60;;
19780;SDS011;10050;55.492;13.506;2023-03-20T11:39:23;3.00;;;2.80;;
19780;SDS011;10050;55.492;13.506;2023-03-20T11:41:58;2.77;;;2.10;;
19780;SDS011;10050;55.492;13.506;2023-03-20T11:44:27;2.47;;;2.27;;
19780;SDS011;10050;55.492;13.506;2023-03-20T11:49:48;4.10;;;2.60;;
19780;SDS011;10050;55.492;13.506;2023-03-20T11:52:28;3.07;;;2.77;;
19780;SDS011;10050;55.492;13.506;2023-03-20T11:55:00;4.67;;;2.37;;
19780;SDS011;10050;55.492;13.506;2023-03-20T11:57:35;2.73;;;2.50;;
19780;SDS011;10050;55.492;13.506;2023-03-20T12:00:06;2.83;;;2.63;;
19780;SDS011;10050;55.492;13.506;2023-03-20T12:03:36;2.47;;;2.27;;
19780;SDS011;10050;55.492;13.506;2023-03-20T12:06:15;2.10;;;2.00;;
19780;SDS011;10050;55.492;13.506;2023-03-20T12:08:45;2.37;;;2.17;;
19780;SDS011;10050;55.492;13.506;2023-03-20T12:11:35;2.00;;;1.90;;
19780;SDS011;10050;55.492;13.506;2023-03-20T12:14:03;2.27;;;2.17;;
19780;SDS011;10050;55.492;13.506;2023-03-20T12:16:36;2.00;;;1.90;;
19780;SDS011;10050;55.492;13.506;2023-03-20T12:19:09;1.87;;;1.77;;
19780;SDS011;10050;55.492;13.506;2023-03-20T12:21:43;2.20;;;2.10;;
19780;SDS011;10050;55.492;13.506;2023-03-20T12:24:29;2.20;;;2.00;;
19780;SDS011;10050;55.492;13.506;2023-03-20T12:27:10;2.43;;;2.23;;
19780;SDS011;10050;55.492;13.506;2023-03-20T12:30:27;2.40;;;2.20;;
19780;SDS011;10050;55.492;13.506;2023-03-20T12:32:57;2.00;;;1.80;;
19780;SDS011;10050;55.492;13.506;2023-03-20T12:35:29;2.10;;;2.00;;
19780;SDS011;10050;55.492;13.506;2023-03-20T12:37:56;2.30;;;2.00;;
19780;SDS011;10050;55.492;13.506;2023-03-20T12:40:32;2.20;;;2.10;;
19780;SDS011;10050;55.492;13.506;2023-03-20T12:43:18;2.13;;;1.90;;
19780;SDS011;10050;55.492;13.506;2023-03-20T12:45:55;1.80;;;1.70;;
19780;SDS011;10050;55.492;13.506;2023-03-20T12:48:53;1.60;;;1.50;;
19780;SDS011;10050;55.492;13.506;2023-03-20T12:54:34;1.80;;;1.70;;
19780;SDS011;10050;55.492;13.506;2023-03-20T12:57:21;1.80;;;1.70;;
19780;SDS011;10050;55.492;13.506;2023-03-20T13:13:45;2.63;;;1.27;;
19780;SDS011;10050;55.492;13.506;2023-03-20T13:16:24;1.63;;;1.47;;
19780;SDS011;10050;55.492;13.506;2023-03-20T13:35:36;1.70;;;1.60;;
19780;SDS011;10050;55.492;13.506;2023-03-20T13:38:13;1.60;;;1.50;;
19780;SDS011;10050;55.492;13.506;2023-03-20T13:40:42;1.30;;;1.30;;
19780;SDS011;10050;55.492;13.506;2023-03-20T13:46:05;1.23;;;1.23;;
19780;SDS011;10050;55.492;13.506;2023-03-20T13:48:37;1.20;;;1.20;;
19780;SDS011;10050;55.492;13.506;2023-03-20T14:01:56;1.40;;;1.30;;
19780;SDS011;10050;55.492;13.506;2023-03-20T14:04:43;1.53;;;1.50;;
19780;SDS011;10050;55.492;13.506;2023-03-20T14:07:25;2.50;;;2.30;;
19780;SDS011;10050;55.492;13.506;2023-03-20T14:09:52;3.30;;;3.00;;
19780;SDS011;10050;55.492;13.506;2023-03-20T14:12:19;2.70;;;2.50;;
19780;SDS011;10050;55.492;13.506;2023-03-20T14:14:56;3.47;;;3.17;;
19780;SDS011;10050;55.492;13.506;2023-03-20T14:17:28;1.90;;;1.80;;
19780;SDS011;10050;55.492;13.506;2023-03-20T14:19:55;2.23;;;2.13;;
19780;SDS011;10050;55.492;13.506;2023-03-20T14:22:25;2.87;;;1.90;;
19780;SDS011;10050;55.492;13.506;2023-03-20T14:24:56;1.80;;;1.70;;
19780;SDS011;10050;55.492;13.506;2023-03-20T14:27:26;2.27;;;2.13;;
19780;SDS011;10050;55.492;13.506;2023-03-20T14:29:54;1.90;;;1.80;;
19780;SDS011;10050;55.492;13.506;2023-03-20T14:32:21;2.60;;;2.40;;
19780;SDS011;10050;55.492;13.506;2023-03-20T14:34:58;2.00;;;1.90;;
19780;SDS011;10050;55.492;13.506;2023-03-20T14:37:58;3.37;;;1.87;;
19780;SDS011;10050;55.492;13.506;2023-03-20T14:40:27;2.30;;;2.10;;
19780;SDS011;10050;55.492;13.506;2023-03-20T14:42:59;2.40;;;2.20;;
19780;SDS011;10050;55.492;13.506;2023-03-20T14:45:34;4.10;;;2.20;;
19780;SDS011;10050;55.492;13.506;2023-03-20T14:53:53;4.13;;;2.30;;
19780;SDS011;10050;55.492;13.506;2023-03-20T14:56:41;2.20;;;2.00;;
19780;SDS011;10050;55.492;13.506;2023-03-20T14:59:09;2.30;;;2.20;;
19780;SDS011;10050;55.492;13.506;2023-03-20T15:09:33;3.87;;;2.90;;
19780;SDS011;10050;55.492;13.506;2023-03-20T15:12:04;3.10;;;2.90;;
19780;SDS011;10050;55.492;13.506;2023-03-20T15:14:35;3.43;;;2.90;;
19780;SDS011;10050;55.492;13.506;2023-03-20T15:17:15;3.30;;;3.00;;
19780;SDS011;10050;55.492;13.506;2023-03-20T15:19:43;3.57;;;3.27;;
19780;SDS011;10050;55.492;13.506;2023-03-20T15:22:19;3.53;;;3.23;;
19780;SDS011;10050;55.492;13.506;2023-03-20T15:24:52;3.10;;;2.80;;
19780;SDS011;10050;55.492;13.506;2023-03-20T15:27:19;3.20;;;2.97;;
19780;SDS011;10050;55.492;13.506;2023-03-20T15:29:48;4.43;;;3.30;;
19780;SDS011;10050;55.492;13.506;2023-03-20T15:32:16;3.07;;;2.87;;
19780;SDS011;10050;55.492;13.506;2023-03-20T15:38:03;3.57;;;3.27;;
19780;SDS011;10050;55.492;13.506;2023-03-20T15:40:30;3.37;;;3.10;;
19780;SDS011;10050;55.492;13.506;2023-03-20T15:45:38;3.70;;;3.40;;
19780;SDS011;10050;55.492;13.506;2023-03-20T15:48:26;2.83;;;2.63;;
19780;SDS011;10050;55.492;13.506;2023-03-20T15:50:57;3.67;;;2.73;;
19780;SDS011;10050;55.492;13.506;2023-03-20T15:53:28;3.20;;;2.90;;
19780;SDS011;10050;55.492;13.506;2023-03-20T15:58:30;3.93;;;2.50;;
19780;SDS011;10050;55.492;13.506;2023-03-20T16:00:58;3.73;;;2.90;;
19780;SDS011;10050;55.492;13.506;2023-03-20T16:03:25;3.83;;;2.90;;
19780;SDS011;10050;55.492;13.506;2023-03-20T16:05:52;3.13;;;2.80;;
19780;SDS011;10050;55.492;13.506;2023-03-20T16:10:52;2.97;;;2.77;;
19780;SDS011;10050;55.492;13.506;2023-03-20T16:13:40;3.23;;;2.93;;
19780;SDS011;10050;55.492;13.506;2023-03-20T16:16:21;3.43;;;3.13;;
19780;SDS011;10050;55.492;13.506;2023-03-20T16:18:48;3.13;;;2.90;;
19780;SDS011;10050;55.492;13.506;2023-03-20T16:21:20;2.90;;;2.70;;
19780;SDS011;10050;55.492;13.506;2023-03-20T16:23:51;2.97;;;2.77;;
19780;SDS011;10050;55.492;13.506;2023-03-20T16:26:20;3.30;;;2.33;;
19780;SDS011;10050;55.492;13.506;2023-03-20T16:28:48;3.37;;;3.07;;
19780;SDS011;10050;55.492;13.506;2023-03-20T16:31:17;3.30;;;3.10;;
19780;SDS011;10050;55.492;13.506;2023-03-20T16:34:04;3.67;;;3.37;;
19780;SDS011;10050;55.492;13.506;2023-03-20T16:36:36;3.33;;;3.13;;
19780;SDS011;10050;55.492;13.506;2023-03-20T16:41:35;4.10;;;3.73;;
19780;SDS011;10050;55.492;13.506;2023-03-20T16:44:21;4.03;;;3.63;;
19780;SDS011;10050;55.492;13.506;2023-03-20T16:52:15;3.90;;;3.60;;
19780;SDS011;10050;55.492;13.506;2023-03-20T16:54:43;5.77;;;3.70;;
19780;SDS011;10050;55.492;13.506;2023-03-20T16:57:16;4.03;;;3.63;;
19780;SDS011;10050;55.492;13.506;2023-03-20T16:59:43;5.50;;;3.73;;
19780;SDS011;10050;55.492;13.506;2023-03-20T17:02:31;3.93;;;3.50;;
19780;SDS011;10050;55.492;13.506;2023-03-20T17:05:03;3.83;;;3.53;;
19780;SDS011;10050;55.492;13.506;2023-03-20T17:07:31;4.47;;;4.07;;
19780;SDS011;10050;55.492;13.506;2023-03-20T17:09:58;5.23;;;4.40;;
19780;SDS011;10050;55.492;13.506;2023-03-20T17:12:25;5.80;;;3.70;;
19780;SDS011;10050;55.492;13.506;2023-03-20T17:14:55;4.93;;;4.27;;